createdAt,value
2023-01-28T00:00:02.552Z,13.4
2023-01-28T00:01:05.074Z,13.4
2023-01-28T00:02:07.570Z,13.4
2023-01-28T00:03:10.090Z,13.5
2023-01-28T00:04:12.638Z,13.5
2023-01-28T00:05:15.766Z,13.4
2023-01-28T00:06:18.795Z,13.6
2023-01-28T00:07:21.280Z,13.5
2023-01-28T00:08:24.061Z,13.5
2023-01-28T00:09:25.980Z,13.5
2023-01-28T00:10:28.223Z,13.5
2023-01-28T00:11:30.711Z,13.4
2023-01-28T00:12:33.208Z,13.5
2023-01-28T00:13:35.746Z,13.4
2023-01-28T00:14:38.337Z,13.5
2023-01-28T00:15:40.576Z,13.6
2023-01-28T00:16:42.857Z,13.5
2023-01-28T00:17:44.838Z,13.5
2023-01-28T00:18:47.246Z,13.5
2023-01-28T00:19:49.500Z,13.6
2023-01-28T00:20:52.018Z,13.6
2023-01-28T00:21:54.228Z,13.6
2023-01-28T00:22:56.729Z,13.5
2023-01-28T00:23:59.378Z,13.5
2023-01-28T00:25:02.124Z,13.6
2023-01-28T00:26:04.654Z,13.6
2023-01-28T00:27:06.579Z,13.5
2023-01-28T00:28:09.059Z,13.6
2023-01-28T00:29:11.576Z,13.6
2023-01-28T00:30:14.248Z,13.5
2023-01-28T00:31:16.755Z,13.5
2023-01-28T00:32:19.047Z,13.6
2023-01-28T00:33:21.545Z,13.6
2023-01-28T00:34:24.061Z,13.6
2023-01-28T00:35:26.329Z,13.5
2023-01-28T00:36:28.853Z,13.5
2023-01-28T00:37:31.381Z,13.7
2023-01-28T00:38:33.879Z,13.6
2023-01-28T00:39:36.170Z,13.7
2023-01-28T00:40:38.149Z,13.6
2023-01-28T00:41:40.645Z,13.6
2023-01-28T00:42:42.886Z,13.7
2023-01-28T00:43:45.149Z,13.7
2023-01-28T00:44:47.681Z,13.6
2023-01-28T00:45:50.977Z,13.6
2023-01-28T00:46:53.589Z,13.6
2023-01-28T00:47:55.838Z,13.7
2023-01-28T00:48:58.368Z,13.7
2023-01-28T00:50:00.653Z,13.6
2023-01-28T00:51:02.922Z,13.6
2023-01-28T00:52:05.540Z,13.6
2023-01-28T00:53:08.050Z,13.6
2023-01-28T00:54:10.595Z,13.6
2023-01-28T00:55:13.930Z,13.6
2023-01-28T00:56:18.147Z,13.7
2023-01-28T00:57:20.460Z,13.6
2023-01-28T00:58:22.984Z,13.7
2023-01-28T00:59:25.497Z,13.6
2023-01-28T01:00:28.088Z,13.7
2023-01-28T01:01:30.826Z,13.7
2023-01-28T01:02:33.812Z,13.7
2023-01-28T01:03:36.346Z,13.6
2023-01-28T01:04:38.292Z,13.7
2023-01-28T01:05:39.979Z,13.6
2023-01-28T01:06:42.245Z,13.8
2023-01-28T01:07:44.781Z,13.7
2023-01-28T01:08:47.272Z,13.6
2023-01-28T01:09:49.760Z,13.8
2023-01-28T01:10:52.294Z,13.6
2023-01-28T01:11:54.808Z,13.8
2023-01-28T01:12:57.291Z,13.7
2023-01-28T01:13:59.791Z,13.6
2023-01-28T01:15:02.335Z,13.7
2023-01-28T01:16:05.148Z,13.7
2023-01-28T01:17:08.010Z,13.7
2023-01-28T01:18:10.253Z,13.6
2023-01-28T01:19:12.469Z,13.6
2023-01-28T01:20:14.731Z,13.7
2023-01-28T01:21:17.258Z,13.6
2023-01-28T01:22:19.563Z,13.6
2023-01-28T01:23:21.775Z,13.7
2023-01-28T01:24:24.314Z,13.7
2023-01-28T01:25:27.030Z,13.7
2023-01-28T01:26:29.270Z,13.6
2023-01-28T01:27:31.780Z,13.8
2023-01-28T01:28:34.007Z,13.7
2023-01-28T01:29:36.529Z,13.7
2023-01-28T01:30:38.798Z,13.7
2023-01-28T01:31:41.534Z,13.8
2023-01-28T01:32:44.283Z,13.7
2023-01-28T01:33:46.518Z,13.7
2023-01-28T01:34:49.038Z,13.8
2023-01-28T01:35:50.991Z,13.8
2023-01-28T01:36:53.595Z,13.7
2023-01-28T01:37:56.150Z,13.8
2023-01-28T01:38:58.397Z,13.7
2023-01-28T01:40:00.896Z,13.7
2023-01-28T01:41:03.171Z,13.7
2023-01-28T01:42:05.413Z,13.8
2023-01-28T01:43:07.615Z,13.8
2023-01-28T01:44:10.129Z,13.7
2023-01-28T01:45:13.452Z,13.7
2023-01-28T01:46:18.051Z,13.7
2023-01-28T01:47:20.828Z,13.8
2023-01-28T01:48:23.447Z,13.7
2023-01-28T01:49:25.958Z,13.7
2023-01-28T01:50:28.246Z,13.7
2023-01-28T01:51:30.464Z,13.7
2023-01-28T01:52:32.964Z,13.7
2023-01-28T01:53:35.485Z,13.7
2023-01-28T01:54:37.996Z,13.8
2023-01-28T01:55:40.235Z,13.8
2023-01-28T01:56:42.766Z,13.7
2023-01-28T01:57:44.982Z,13.8
2023-01-28T01:58:47.475Z,13.7
2023-01-28T01:59:49.967Z,13.7
2023-01-28T02:00:52.470Z,13.7
2023-01-28T02:01:55.043Z,13.7
2023-01-28T02:02:57.212Z,13.7
2023-01-28T02:03:59.769Z,13.7
2023-01-28T02:05:02.282Z,13.7
2023-01-28T02:06:03.948Z,13.7
2023-01-28T02:07:06.126Z,13.8
2023-01-28T02:08:08.784Z,13.7
2023-01-28T02:09:11.069Z,13.8
2023-01-28T02:10:13.572Z,13.8
2023-01-28T02:11:15.806Z,13.7
2023-01-28T02:12:18.319Z,13.7
2023-01-28T02:13:20.581Z,13.8
2023-01-28T02:15:28.058Z,13.8
2023-01-28T02:16:30.632Z,13.7
2023-01-28T02:17:33.044Z,13.7
2023-01-28T02:18:35.285Z,13.7
2023-01-28T02:19:37.872Z,13.8
2023-01-28T02:20:40.369Z,13.8
2023-01-28T02:21:42.877Z,13.8
2023-01-28T02:22:45.092Z,13.8
2023-01-28T02:23:47.314Z,13.7
2023-01-28T02:24:49.849Z,13.7
2023-01-28T02:25:52.418Z,13.8
2023-01-28T02:26:54.991Z,13.8
2023-01-28T02:27:57.494Z,13.8
2023-01-28T02:28:59.685Z,13.8
2023-01-28T02:30:01.638Z,13.8
2023-01-28T02:31:04.414Z,13.9
2023-01-28T02:32:07.319Z,13.8
2023-01-28T02:33:09.878Z,13.8
2023-01-28T02:34:12.397Z,13.8
2023-01-28T02:35:15.706Z,13.8
2023-01-28T02:36:19.251Z,13.8
2023-01-28T02:37:21.752Z,13.9
2023-01-28T02:38:24.316Z,13.8
2023-01-28T02:39:26.829Z,13.8
2023-01-28T02:40:29.390Z,13.8
2023-01-28T02:41:31.859Z,13.8
2023-01-28T02:42:34.370Z,13.8
2023-01-28T02:43:36.859Z,13.8
2023-01-28T02:44:39.010Z,13.8
2023-01-28T02:45:41.255Z,13.9
2023-01-28T02:46:43.512Z,13.9
2023-01-28T02:47:45.835Z,13.8
2023-01-28T02:48:48.343Z,13.8
2023-01-28T02:49:50.894Z,13.8
2023-01-28T02:50:53.233Z,13.8
2023-01-28T02:51:55.435Z,13.8
2023-01-28T02:52:57.933Z,13.7
2023-01-28T02:54:00.444Z,13.8
2023-01-28T02:55:02.932Z,13.8
2023-01-28T02:56:05.561Z,13.7
2023-01-28T02:57:08.133Z,13.8
2023-01-28T02:58:10.714Z,13.8
2023-01-28T02:59:12.949Z,13.8
2023-01-28T03:00:15.469Z,13.8
2023-01-28T03:01:18.047Z,13.8
2023-01-28T03:02:20.733Z,13.8
2023-01-28T03:03:22.813Z,13.7
2023-01-28T03:04:25.320Z,13.8
2023-01-28T03:05:27.851Z,13.8
2023-01-28T03:06:30.495Z,13.8
2023-01-28T03:07:33.010Z,13.8
2023-01-28T03:08:35.523Z,13.7
2023-01-28T03:09:38.042Z,13.9
2023-01-28T03:10:39.730Z,13.8
2023-01-28T03:11:41.961Z,13.8
2023-01-28T03:12:44.186Z,13.7
2023-01-28T03:13:46.460Z,13.9
2023-01-28T03:14:48.947Z,13.9
2023-01-28T03:15:51.559Z,13.8
2023-01-28T03:16:54.213Z,13.9
2023-01-28T03:17:56.411Z,13.8
2023-01-28T03:18:58.622Z,13.9
2023-01-28T03:20:01.149Z,13.8
2023-01-28T03:21:03.664Z,13.9
2023-01-28T03:22:06.219Z,13.8
2023-01-28T03:23:08.449Z,13.8
2023-01-28T03:24:11.054Z,13.8
2023-01-28T03:25:14.567Z,13.9
2023-01-28T03:26:18.070Z,13.8
2023-01-28T03:27:20.313Z,13.8
2023-01-28T03:28:22.674Z,13.8
2023-01-28T03:29:25.432Z,13.8
2023-01-28T03:30:27.961Z,13.8
2023-01-28T03:31:30.167Z,13.9
2023-01-28T03:32:32.668Z,13.9
2023-01-28T03:33:35.186Z,13.9
2023-01-28T03:34:37.401Z,14
2023-01-28T03:35:39.905Z,13.9
2023-01-28T03:36:42.461Z,13.9
2023-01-28T03:37:44.801Z,13.9
2023-01-28T03:38:47.032Z,13.9
2023-01-28T03:39:49.883Z,13.8
2023-01-28T03:40:52.450Z,13.8
2023-01-28T03:41:54.951Z,13.9
2023-01-28T03:42:57.184Z,13.9
2023-01-28T03:43:59.390Z,13.8
2023-01-28T03:45:01.884Z,13.8
2023-01-28T03:46:04.448Z,13.9
2023-01-28T03:47:07.077Z,13.8
2023-01-28T03:48:09.592Z,13.8
2023-01-28T03:49:12.086Z,13.8
2023-01-28T03:50:14.453Z,13.8
2023-01-28T03:51:17.212Z,13.8
2023-01-28T03:52:19.743Z,13.8
2023-01-28T03:53:22.043Z,13.8
2023-01-28T03:54:24.024Z,13.8
2023-01-28T03:55:26.269Z,13.8
2023-01-28T03:56:28.469Z,13.8
2023-01-28T03:57:30.975Z,13.9
2023-01-28T03:58:33.701Z,13.9
2023-01-28T03:59:35.650Z,13.9
2023-01-28T04:00:38.160Z,13.8
2023-01-28T04:01:40.503Z,13.9
2023-01-28T04:02:43.386Z,13.8
2023-01-28T04:03:45.822Z,14
2023-01-28T04:04:48.059Z,13.8
2023-01-28T04:05:50.276Z,13.8
2023-01-28T04:06:52.534Z,13.9
2023-01-28T04:07:55.046Z,13.8
2023-01-28T04:08:57.626Z,13.9
2023-01-28T04:09:59.597Z,13.8
2023-01-28T04:11:02.192Z,13.8
2023-01-28T04:12:04.704Z,13.8
2023-01-28T04:13:06.935Z,13.8
2023-01-28T04:14:09.508Z,13.8
2023-01-28T04:15:12.362Z,13.8
2023-01-28T04:16:16.688Z,13.8
2023-01-28T04:17:19.448Z,13.8
2023-01-28T04:18:21.984Z,13.8
2023-01-28T04:19:24.212Z,13.8
2023-01-28T04:20:26.458Z,13.8
2023-01-28T04:21:28.682Z,13.8
2023-01-28T04:22:31.185Z,13.7
2023-01-28T04:23:33.872Z,13.7
2023-01-28T04:24:36.247Z,13.7
2023-01-28T04:25:38.557Z,13.8
2023-01-28T04:26:41.054Z,13.7
2023-01-28T04:27:43.573Z,13.8
2023-01-28T04:28:46.109Z,13.8
2023-01-28T04:29:48.379Z,13.8
2023-01-28T04:30:50.723Z,13.8
2023-01-28T04:31:53.495Z,13.8
2023-01-28T04:32:56.012Z,13.7
2023-01-28T04:33:58.528Z,13.7
2023-01-28T04:35:00.792Z,13.8
2023-01-28T04:36:03.298Z,13.7
2023-01-28T04:37:05.810Z,13.8
2023-01-28T04:38:08.040Z,13.9
2023-01-28T04:39:10.591Z,13.8
2023-01-28T04:40:13.167Z,13.7
2023-01-28T04:41:15.675Z,13.7
2023-01-28T04:42:18.182Z,13.8
2023-01-28T04:43:20.710Z,13.7
2023-01-28T04:44:23.203Z,13.7
2023-01-28T04:45:25.797Z,13.7
2023-01-28T04:46:28.102Z,13.7
2023-01-28T04:47:30.509Z,13.7
2023-01-28T04:48:32.739Z,13.7
2023-01-28T04:49:35.239Z,13.7
2023-01-28T04:50:37.736Z,13.8
2023-01-28T04:51:40.243Z,13.7
2023-01-28T04:52:42.763Z,13.8
2023-01-28T04:53:44.758Z,13.7
2023-01-28T04:54:47.288Z,13.7
2023-01-28T04:55:49.852Z,13.7
2023-01-28T04:56:51.908Z,13.7
2023-01-28T04:57:54.143Z,13.7
2023-01-28T04:58:56.645Z,13.7
2023-01-28T04:59:58.859Z,13.7
2023-01-28T05:01:01.486Z,13.7
2023-01-28T05:02:04.390Z,13.7
2023-01-28T05:03:06.920Z,13.8
2023-01-28T05:04:09.419Z,13.8
2023-01-28T05:05:11.957Z,13.7
2023-01-28T05:06:15.799Z,13.8
2023-01-28T05:07:18.298Z,13.7
2023-01-28T05:08:20.492Z,13.8
2023-01-28T05:09:22.748Z,13.8
2023-01-28T05:10:24.995Z,13.7
2023-01-28T05:11:27.333Z,13.7
2023-01-28T05:12:29.823Z,13.7
2023-01-28T05:13:32.315Z,13.8
2023-01-28T05:14:34.551Z,13.7
2023-01-28T05:15:36.767Z,13.7
2023-01-28T05:16:39.292Z,13.7
2023-01-28T05:17:41.956Z,13.7
2023-01-28T05:18:45.375Z,13.8
2023-01-28T05:19:47.875Z,13.8
2023-01-28T05:20:49.788Z,13.7
2023-01-28T05:21:51.792Z,13.8
2023-01-28T05:22:54.012Z,13.8
2023-01-28T05:23:56.136Z,13.7
2023-01-28T05:24:58.536Z,13.7
2023-01-28T05:26:00.526Z,13.6
2023-01-28T05:27:03.155Z,13.7
2023-01-28T05:28:05.386Z,13.7
2023-01-28T05:29:07.910Z,13.7
2023-01-28T05:30:10.488Z,13.7
2023-01-28T05:31:13.173Z,13.8
2023-01-28T05:32:15.793Z,13.6
2023-01-28T05:33:18.410Z,13.7
2023-01-28T05:34:20.627Z,13.7
2023-01-28T05:35:23.190Z,13.7
2023-01-28T05:36:25.699Z,13.8
2023-01-28T05:37:28.223Z,13.7
2023-01-28T05:38:30.746Z,13.7
2023-01-28T05:39:33.000Z,13.8
2023-01-28T05:40:35.513Z,13.7
2023-01-28T05:41:38.205Z,13.7
2023-01-28T05:42:40.595Z,13.8
2023-01-28T05:43:42.558Z,13.7
2023-01-28T05:44:45.057Z,13.7
2023-01-28T05:45:47.797Z,13.7
2023-01-28T05:46:50.521Z,13.7
2023-01-28T05:47:53.068Z,13.7
2023-01-28T05:48:55.573Z,13.7
2023-01-28T05:49:57.798Z,13.6
2023-01-28T05:51:00.339Z,13.7
2023-01-28T05:52:02.881Z,13.7
2023-01-28T05:53:05.448Z,13.7
2023-01-28T05:54:07.997Z,13.7
2023-01-28T05:55:10.218Z,13.6
2023-01-28T05:56:12.783Z,13.7
2023-01-28T05:57:15.349Z,13.7
2023-01-28T05:58:17.980Z,13.7
2023-01-28T05:59:20.566Z,13.7
2023-01-28T06:00:22.827Z,13.6
2023-01-28T06:01:25.346Z,13.6
2023-01-28T06:02:27.741Z,13.6
2023-01-28T06:03:30.428Z,13.7
2023-01-28T06:04:32.639Z,13.7
2023-01-28T06:05:35.332Z,13.6
2023-01-28T06:06:38.083Z,13.7
2023-01-28T06:07:40.612Z,13.6
2023-01-28T06:08:42.564Z,13.7
2023-01-28T06:09:45.092Z,13.7
2023-01-28T06:10:47.328Z,13.7
2023-01-28T06:11:49.827Z,13.6
2023-01-28T06:12:52.384Z,13.6
2023-01-28T06:13:54.960Z,13.6
2023-01-28T06:14:57.193Z,13.6
2023-01-28T06:15:59.747Z,13.6
2023-01-28T06:17:02.700Z,13.7
2023-01-28T06:18:05.185Z,13.7
2023-01-28T06:19:07.720Z,13.6
2023-01-28T06:20:10.224Z,13.7
2023-01-28T06:21:12.740Z,13.7
2023-01-28T06:22:15.252Z,13.6
2023-01-28T06:23:17.296Z,13.6
2023-01-28T06:24:19.830Z,13.6
2023-01-28T06:25:22.604Z,13.6
2023-01-28T06:26:24.862Z,13.6
2023-01-28T06:27:27.400Z,13.5
2023-01-28T06:28:29.945Z,13.7
2023-01-28T06:29:32.546Z,13.6
2023-01-28T06:30:35.190Z,13.6
2023-01-28T06:31:37.702Z,13.6
2023-01-28T06:32:40.221Z,13.7
2023-01-28T06:33:42.705Z,13.7
2023-01-28T06:34:45.240Z,13.6
2023-01-28T06:35:47.457Z,13.6
2023-01-28T06:36:49.993Z,13.6
2023-01-28T06:37:52.512Z,13.7
2023-01-28T06:38:54.743Z,13.6
2023-01-28T06:39:57.223Z,13.6
2023-01-28T06:40:59.446Z,13.6
2023-01-28T06:42:01.683Z,13.6
2023-01-28T06:43:03.983Z,13.7
2023-01-28T06:44:06.500Z,13.5
2023-01-28T06:45:09.087Z,13.6
2023-01-28T06:46:11.714Z,13.6
2023-01-28T06:47:14.496Z,13.5
2023-01-28T06:48:16.479Z,13.6
2023-01-28T06:49:18.700Z,13.6
2023-01-28T06:50:20.958Z,13.6
2023-01-28T06:51:23.452Z,13.6
2023-01-28T06:52:25.674Z,13.6
2023-01-28T06:53:28.163Z,13.6
2023-01-28T06:54:30.083Z,13.6
2023-01-28T06:55:32.288Z,13.6
2023-01-28T06:56:34.544Z,13.6
2023-01-28T06:57:36.188Z,13.6
2023-01-28T06:58:38.782Z,13.6
2023-01-28T06:59:41.039Z,13.6
2023-01-28T07:00:43.598Z,13.6
2023-01-28T07:01:46.292Z,13.6
2023-01-28T07:02:49.123Z,13.6
2023-01-28T07:03:51.834Z,13.6
2023-01-28T07:04:54.314Z,13.6
2023-01-28T07:05:56.852Z,13.7
2023-01-28T07:06:59.368Z,13.6
2023-01-28T07:08:01.580Z,13.7
2023-01-28T07:09:04.094Z,13.6
2023-01-28T07:10:06.613Z,13.6
2023-01-28T07:11:09.124Z,13.6
2023-01-28T07:12:11.902Z,13.6
2023-01-28T07:13:14.628Z,13.6
2023-01-28T07:14:17.048Z,13.6
2023-01-28T07:15:19.722Z,13.5
2023-01-28T07:16:22.094Z,13.7
2023-01-28T07:17:24.688Z,13.6
2023-01-28T07:18:27.336Z,13.5
2023-01-28T07:19:29.905Z,13.6
2023-01-28T07:20:32.429Z,13.5
2023-01-28T07:21:34.954Z,13.6
2023-01-28T07:22:37.532Z,13.5
2023-01-28T07:23:40.045Z,13.6
2023-01-28T07:24:42.551Z,13.5
2023-01-28T07:25:44.780Z,13.5
2023-01-28T07:26:47.281Z,13.6
2023-01-28T07:27:49.798Z,13.5
2023-01-28T07:28:52.073Z,13.6
2023-01-28T07:29:54.665Z,13.5
2023-01-28T07:30:56.996Z,13.6
2023-01-28T07:31:59.636Z,13.6
2023-01-28T07:33:02.277Z,13.6
2023-01-28T07:34:04.818Z,13.5
2023-01-28T07:35:07.326Z,13.6
2023-01-28T07:36:09.843Z,13.6
2023-01-28T07:37:12.097Z,13.6
2023-01-28T07:38:14.604Z,13.6
2023-01-28T07:39:17.128Z,13.6
2023-01-28T07:40:19.631Z,13.5
2023-01-28T07:41:21.578Z,13.5
2023-01-28T07:42:23.555Z,13.5
2023-01-28T07:43:26.076Z,13.5
2023-01-28T07:44:28.609Z,13.6
2023-01-28T07:45:31.169Z,13.6
2023-01-28T07:46:33.748Z,13.5
2023-01-28T07:47:36.525Z,13.5
2023-01-28T07:48:38.775Z,13.5
2023-01-28T07:49:41.271Z,13.5
2023-01-28T07:50:43.831Z,13.6
2023-01-28T07:51:46.086Z,13.6
2023-01-28T07:52:48.423Z,13.5
2023-01-28T07:53:50.762Z,13.6
2023-01-28T07:54:53.272Z,13.6
2023-01-28T07:55:55.500Z,13.5
2023-01-28T07:56:58.008Z,13.5
2023-01-28T07:58:00.530Z,13.5
2023-01-28T07:59:02.776Z,13.6
2023-01-28T08:00:05.339Z,13.6
2023-01-28T08:01:07.892Z,13.6
2023-01-28T08:02:10.253Z,13.6
2023-01-28T08:03:12.866Z,13.5
2023-01-28T08:04:15.660Z,13.5
2023-01-28T08:05:18.974Z,13.5
2023-01-28T08:06:22.320Z,13.6
2023-01-28T08:07:24.822Z,13.6
2023-01-28T08:08:27.347Z,13.5
2023-01-28T08:09:29.594Z,13.5
2023-01-28T08:10:32.097Z,13.5
2023-01-28T08:11:34.313Z,13.5
2023-01-28T08:12:36.595Z,13.5
2023-01-28T08:13:39.092Z,13.5
2023-01-28T08:14:41.764Z,13.5
2023-01-28T08:15:44.388Z,13.6
2023-01-28T08:16:46.836Z,13.6
2023-01-28T08:17:49.389Z,13.6
2023-01-28T08:18:52.007Z,13.5
2023-01-28T08:19:54.482Z,13.5
2023-01-28T08:20:57.307Z,13.6
2023-01-28T08:21:59.649Z,13.6
2023-01-28T08:23:01.930Z,13.5
2023-01-28T08:24:04.364Z,13.6
2023-01-28T08:25:07.132Z,13.5
2023-01-28T08:26:09.637Z,13.5
2023-01-28T08:27:12.233Z,13.5
2023-01-28T08:28:14.523Z,13.5
2023-01-28T08:29:16.759Z,13.5
2023-01-28T08:30:19.049Z,13.4
2023-01-28T08:31:21.862Z,13.6
2023-01-28T08:32:24.795Z,13.5
2023-01-28T08:33:27.335Z,13.6
2023-01-28T08:34:30.011Z,13.6
2023-01-28T08:35:32.512Z,13.4
2023-01-28T08:36:35.338Z,13.6
2023-01-28T08:37:37.609Z,13.7
2023-01-28T08:38:39.829Z,13.5
2023-01-28T08:39:42.252Z,13.7
2023-01-28T08:40:48.305Z,13.6
2023-01-28T08:41:50.231Z,13.6
2023-01-28T08:42:52.759Z,13.5
2023-01-28T08:43:55.384Z,13.5
2023-01-28T08:44:59.696Z,13.5
2023-01-28T08:46:03.494Z,13.5
2023-01-28T08:47:06.362Z,13.5
2023-01-28T08:48:08.858Z,13.5
2023-01-28T08:49:11.393Z,13.5
2023-01-28T08:50:14.809Z,13.5
2023-01-28T08:51:18.274Z,13.5
2023-01-28T08:52:20.531Z,13.5
2023-01-28T08:53:23.022Z,13.5
2023-01-28T08:54:24.978Z,13.5
2023-01-28T08:55:27.234Z,13.5
2023-01-28T08:56:29.155Z,13.5
2023-01-28T08:57:31.682Z,13.5
2023-01-28T08:58:33.897Z,13.5
2023-01-28T08:59:36.555Z,13.6
2023-01-28T09:00:38.481Z,13.4
2023-01-28T09:01:40.920Z,13.5
2023-01-28T09:02:43.741Z,13.6
2023-01-28T09:03:46.056Z,13.5
2023-01-28T09:04:48.496Z,13.6
2023-01-28T09:05:51.097Z,13.5
2023-01-28T09:06:53.354Z,13.5
2023-01-28T09:07:55.853Z,13.5
2023-01-28T09:08:57.798Z,13.5
2023-01-28T09:10:00.330Z,13.5
2023-01-28T09:11:02.405Z,13.5
2023-01-28T09:12:04.908Z,13.5
2023-01-28T09:13:07.159Z,13.5
2023-01-28T09:14:09.699Z,13.5
2023-01-28T09:15:11.949Z,13.5
2023-01-28T09:16:14.401Z,13.5
2023-01-28T09:17:17.240Z,13.5
2023-01-28T09:18:19.462Z,13.5
2023-01-28T09:19:21.995Z,13.5
2023-01-28T09:20:23.445Z,13.5
2023-01-28T09:21:26.163Z,13.5
2023-01-28T09:22:28.693Z,13.6
2023-01-28T09:23:31.206Z,13.5
2023-01-28T09:24:33.750Z,13.5
2023-01-28T09:25:40.459Z,13.6
2023-01-28T09:26:43.081Z,13.5
2023-01-28T09:27:45.612Z,13.5
2023-01-28T09:28:47.838Z,13.5
2023-01-28T09:29:50.063Z,13.5
2023-01-28T09:30:52.120Z,13.5
2023-01-28T09:31:54.387Z,13.5
2023-01-28T09:32:57.140Z,13.5
2023-01-28T09:33:59.440Z,13.5
2023-01-28T09:35:01.768Z,13.6
2023-01-28T09:36:04.038Z,13.6
2023-01-28T09:37:06.388Z,13.6
2023-01-28T09:38:08.898Z,13.5
2023-01-28T09:39:11.120Z,13.6
2023-01-28T09:40:13.962Z,13.5
2023-01-28T09:41:17.892Z,13.5
2023-01-28T09:42:20.466Z,13.6
2023-01-28T09:43:22.688Z,13.5
2023-01-28T09:44:24.922Z,13.5
2023-01-28T09:45:27.152Z,13.5
2023-01-28T09:46:29.808Z,13.5
2023-01-28T09:47:32.274Z,13.5
2023-01-28T09:48:34.506Z,13.5
2023-01-28T09:49:36.716Z,13.5
2023-01-28T09:50:39.267Z,13.5
2023-01-28T09:51:41.809Z,13.4
2023-01-28T09:52:44.460Z,13.5
2023-01-28T09:54:51.990Z,13.5
2023-01-28T09:55:53.668Z,13.5
2023-01-28T09:56:56.202Z,13.5
2023-01-28T09:57:58.737Z,13.5
2023-01-28T09:59:01.272Z,13.5
2023-01-28T10:00:03.771Z,13.4
2023-01-28T10:01:06.444Z,13.5
2023-01-28T10:02:08.833Z,13.5
2023-01-28T10:03:11.057Z,13.5
2023-01-28T10:04:13.336Z,13.5
2023-01-28T10:05:15.844Z,13.4
2023-01-28T10:06:18.433Z,13.6
2023-01-28T10:07:20.685Z,13.5
2023-01-28T10:08:23.262Z,13.5
2023-01-28T10:09:25.250Z,13.5
2023-01-28T10:10:27.792Z,13.4
2023-01-28T10:11:30.023Z,13.6
2023-01-28T10:12:31.967Z,13.5
2023-01-28T10:13:34.482Z,13.6
2023-01-28T10:14:36.990Z,13.6
2023-01-28T10:15:39.214Z,13.5
2023-01-28T10:16:41.703Z,13.5
2023-01-28T10:17:44.407Z,13.5
2023-01-28T10:18:47.151Z,13.5
2023-01-28T10:19:49.669Z,13.5
2023-01-28T10:20:52.196Z,13.5
2023-01-28T10:21:54.441Z,13.5
2023-01-28T10:22:56.692Z,13.5
2023-01-28T10:23:59.195Z,13.5
2023-01-28T10:25:02.039Z,13.5
2023-01-28T10:26:04.271Z,13.5
2023-01-28T10:27:06.785Z,13.5
2023-01-28T10:28:09.309Z,13.5
2023-01-28T10:29:11.854Z,13.5
2023-01-28T10:30:14.968Z,13.5
2023-01-28T10:31:19.034Z,13.5
2023-01-28T10:32:21.325Z,13.5
2023-01-28T10:33:23.854Z,13.5
2023-01-28T10:34:26.093Z,13.4
2023-01-28T10:35:28.329Z,13.5
2023-01-28T10:36:30.850Z,13.5
2023-01-28T10:37:33.359Z,13.6
2023-01-28T10:38:35.934Z,13.6
2023-01-28T10:39:38.504Z,13.4
2023-01-28T10:40:40.721Z,13.5
2023-01-28T10:42:47.912Z,13.5
2023-01-28T10:43:50.156Z,13.5
2023-01-28T10:44:52.686Z,13.4
2023-01-28T10:45:54.716Z,13.5
2023-01-28T10:46:57.452Z,13.6
2023-01-28T10:47:59.946Z,13.4
2023-01-28T10:49:02.459Z,13.5
2023-01-28T10:50:04.703Z,13.5
2023-01-28T10:51:07.097Z,13.5
2023-01-28T10:52:09.604Z,13.5
2023-01-28T10:53:12.108Z,13.4
2023-01-28T10:54:14.618Z,13.5
2023-01-28T10:55:17.218Z,13.5
2023-01-28T10:56:19.438Z,13.5
2023-01-28T10:57:21.992Z,13.5
2023-01-28T10:58:24.279Z,13.6
2023-01-28T10:59:26.552Z,13.6
2023-01-28T11:00:28.545Z,13.6
2023-01-28T11:01:31.052Z,13.5
2023-01-28T11:02:33.848Z,13.6
2023-01-28T11:03:36.597Z,13.6
2023-01-28T11:04:39.115Z,13.5
2023-01-28T11:05:41.635Z,13.5
2023-01-28T11:06:43.876Z,13.5
2023-01-28T11:07:46.422Z,13.5
2023-01-28T11:08:48.902Z,13.5
2023-01-28T11:09:51.227Z,13.4
2023-01-28T11:10:53.848Z,13.5
2023-01-28T11:11:56.453Z,13.5
2023-01-28T11:12:58.760Z,13.6
2023-01-28T11:14:01.352Z,13.5
2023-01-28T11:15:03.829Z,13.5
2023-01-28T11:16:06.123Z,13.5
2023-01-28T11:17:08.332Z,13.5
2023-01-28T11:18:12.839Z,13.4
2023-01-28T11:19:15.069Z,13.5
2023-01-28T11:20:17.952Z,13.5
2023-01-28T11:21:20.790Z,13.5
2023-01-28T11:22:23.319Z,13.5
2023-01-28T11:23:25.876Z,13.5
2023-01-28T11:24:28.425Z,13.5
2023-01-28T11:25:31.234Z,13.5
2023-01-28T11:26:33.943Z,13.5
2023-01-28T11:27:36.191Z,13.5
2023-01-28T11:28:38.691Z,13.4
2023-01-28T11:29:40.658Z,13.5
2023-01-28T11:30:42.964Z,13.5
2023-01-28T11:31:45.436Z,13.4
2023-01-28T11:32:47.858Z,13.5
2023-01-28T11:33:50.372Z,13.6
2023-01-28T11:34:52.957Z,13.5
2023-01-28T11:35:55.206Z,13.6
2023-01-28T11:36:57.452Z,13.5
2023-01-28T11:37:59.694Z,13.5
2023-01-28T11:39:02.244Z,13.6
2023-01-28T11:40:04.837Z,13.4
2023-01-28T11:41:07.131Z,13.6
2023-01-28T11:42:09.761Z,13.5
2023-01-28T11:43:12.075Z,13.4
2023-01-28T11:44:14.606Z,13.5
2023-01-28T11:45:17.049Z,13.5
2023-01-28T11:46:19.775Z,13.5
2023-01-28T11:47:23.003Z,13.5
2023-01-28T11:48:25.473Z,13.5
2023-01-28T11:49:28.001Z,13.5
2023-01-28T11:50:30.511Z,13.5
2023-01-28T11:51:33.388Z,13.4
2023-01-28T11:53:41.229Z,13.5
2023-01-28T11:54:44.072Z,13.5
2023-01-28T11:55:46.465Z,13.5
2023-01-28T11:56:49.576Z,13.6
2023-01-28T11:57:52.273Z,13.5
2023-01-28T11:58:54.215Z,13.4
2023-01-28T11:59:56.738Z,13.5
2023-01-28T12:00:58.971Z,13.5
2023-01-28T12:02:00.947Z,13.5
2023-01-28T12:03:03.472Z,13.5
2023-01-28T12:04:06.011Z,13.6
2023-01-28T12:05:08.525Z,13.5
2023-01-28T12:06:10.736Z,13.5
2023-01-28T12:07:12.983Z,13.6
2023-01-28T12:08:15.188Z,13.6
2023-01-28T12:09:17.694Z,13.6
2023-01-28T12:10:19.908Z,13.5
2023-01-28T12:11:22.131Z,13.5
2023-01-28T12:12:24.376Z,13.5
2023-01-28T12:13:26.987Z,13.5
2023-01-28T12:14:29.228Z,13.4
2023-01-28T12:15:31.471Z,13.6
2023-01-28T12:16:34.035Z,13.5
2023-01-28T12:17:36.538Z,13.6
2023-01-28T12:18:39.119Z,13.5
2023-01-28T12:19:41.620Z,13.5
2023-01-28T12:20:43.884Z,13.5
2023-01-28T12:21:46.375Z,13.6
2023-01-28T12:22:48.884Z,13.6
2023-01-28T12:23:51.099Z,13.4
2023-01-28T12:24:53.928Z,13.5
2023-01-28T12:25:56.432Z,13.4
2023-01-28T12:26:58.675Z,13.5
2023-01-28T12:28:01.207Z,13.6
2023-01-28T12:29:03.875Z,13.5
2023-01-28T12:30:06.116Z,13.4
2023-01-28T12:31:08.896Z,13.5
2023-01-28T12:32:11.802Z,13.5
2023-01-28T12:33:14.927Z,13.5
2023-01-28T12:34:19.405Z,13.5
2023-01-28T12:35:21.663Z,13.5
2023-01-28T12:36:23.615Z,13.4
2023-01-28T12:37:26.114Z,13.5
2023-01-28T12:38:28.371Z,13.5
2023-01-28T12:39:30.873Z,13.5
2023-01-28T12:40:34.280Z,13.5
2023-01-28T12:41:36.556Z,13.5
2023-01-28T12:42:39.063Z,13.4
2023-01-28T12:43:41.327Z,13.5
2023-01-28T12:44:44.015Z,13.5
2023-01-28T12:45:46.919Z,13.5
2023-01-28T12:46:49.620Z,13.5
2023-01-28T12:47:51.558Z,13.5
2023-01-28T12:48:54.061Z,13.5
2023-01-28T12:49:56.306Z,13.6
2023-01-28T12:50:58.811Z,13.4
2023-01-28T12:52:01.044Z,13.4
2023-01-28T12:53:03.662Z,13.5
2023-01-28T12:54:06.648Z,13.5
2023-01-28T12:55:09.238Z,13.5
2023-01-28T12:56:11.778Z,13.4
2023-01-28T12:57:13.978Z,13.5
2023-01-28T12:58:16.474Z,13.5
2023-01-28T12:59:18.716Z,13.5
2023-01-28T13:00:21.029Z,13.5
2023-01-28T13:01:23.601Z,13.5
2023-01-28T13:02:26.306Z,13.4
2023-01-28T13:03:28.924Z,13.5
2023-01-28T13:04:31.455Z,13.6
2023-01-28T13:05:34.019Z,13.3
2023-01-28T13:06:36.691Z,13.5
2023-01-28T13:07:38.720Z,13.5
2023-01-28T13:08:40.972Z,13.5
2023-01-28T13:09:44.639Z,13.4
2023-01-28T13:10:47.339Z,13.4
2023-01-28T13:11:49.571Z,13.5
2023-01-28T13:12:52.074Z,13.6
2023-01-28T13:13:54.267Z,13.5
2023-01-28T13:14:56.793Z,13.5
2023-01-28T13:15:59.784Z,13.5
2023-01-28T13:17:02.637Z,13.5
2023-01-28T13:18:05.554Z,13.5
2023-01-28T13:19:08.100Z,13.6
2023-01-28T13:20:10.750Z,13.5
2023-01-28T13:21:13.086Z,13.5
2023-01-28T13:22:15.377Z,13.4
2023-01-28T13:23:17.371Z,13.5
2023-01-28T13:24:20.110Z,13.5
2023-01-28T13:25:22.610Z,13.5
2023-01-28T13:26:25.364Z,13.6
2023-01-28T13:27:28.228Z,13.5
2023-01-28T13:28:30.487Z,13.5
2023-01-28T13:29:33.149Z,13.5
2023-01-28T13:30:35.955Z,13.5
2023-01-28T13:31:38.474Z,13.6
2023-01-28T13:32:40.916Z,13.4
2023-01-28T13:33:43.321Z,13.4
2023-01-28T13:34:46.084Z,13.5
2023-01-28T13:35:48.766Z,13.5
2023-01-28T13:36:51.316Z,13.4
2023-01-28T13:37:53.840Z,13.5
2023-01-28T13:38:56.506Z,13.5
2023-01-28T13:39:59.143Z,13.5
2023-01-28T13:41:01.467Z,13.5
2023-01-28T13:42:03.719Z,13.5
2023-01-28T13:43:06.467Z,13.5
2023-01-28T13:44:09.293Z,13.4
2023-01-28T13:45:11.536Z,13.5
2023-01-28T13:46:13.841Z,13.6
2023-01-28T13:47:16.654Z,13.5
2023-01-28T13:48:19.190Z,13.5
2023-01-28T13:49:21.399Z,13.5
2023-01-28T13:50:23.942Z,13.5
2023-01-28T13:51:26.749Z,13.3
2023-01-28T13:52:29.072Z,13.5
2023-01-28T13:53:31.575Z,13.5
2023-01-28T13:54:34.115Z,13.5
2023-01-28T13:56:41.769Z,13.5